createdAt,value
2023-04-14T00:01:28.097Z,5.82
2023-04-14T00:03:54.782Z,5.82
2023-04-14T00:06:21.458Z,5.78
2023-04-14T00:08:49.284Z,5.78
2023-04-14T00:11:15.764Z,5.76
2023-04-14T00:13:42.413Z,5.72
2023-04-14T00:16:09.704Z,5.70
2023-04-14T00:18:36.224Z,5.66
2023-04-14T00:21:02.754Z,5.62
2023-04-14T00:23:29.234Z,5.60
2023-04-14T00:25:57.060Z,5.57
2023-04-14T00:28:23.641Z,5.57
2023-04-14T00:30:50.214Z,5.54
2023-04-14T00:33:16.768Z,5.51
2023-04-14T00:35:43.285Z,5.49
2023-04-14T00:38:09.756Z,5.49
2023-04-14T00:40:36.267Z,5.45
2023-04-14T00:43:04.108Z,5.30
2023-04-14T00:45:30.696Z,5.18
2023-04-14T00:47:58.206Z,5.13
2023-04-14T00:50:24.998Z,5.09
2023-04-14T00:52:51.941Z,5.05
2023-04-14T00:55:19.171Z,5.02
2023-04-14T00:57:46.376Z,4.97
2023-04-14T01:00:14.933Z,4.91
2023-04-14T01:02:41.867Z,4.87
2023-04-14T01:05:08.871Z,4.84
2023-04-14T01:07:36.191Z,4.83
2023-04-14T01:10:03.778Z,4.81
2023-04-14T01:12:49.415Z,4.84
2023-04-14T01:15:27.100Z,4.89
2023-04-14T01:18:01.843Z,4.92
2023-04-14T01:20:32.930Z,4.94
2023-04-14T01:23:04.365Z,4.93
2023-04-14T01:26:06.679Z,4.93
2023-04-14T01:28:48.318Z,4.89
2023-04-14T01:31:25.381Z,4.88
2023-04-14T01:33:57.127Z,4.86
2023-04-14T01:36:30.281Z,4.86
2023-04-14T01:38:57.926Z,4.82
2023-04-14T01:41:28.436Z,4.80
2023-04-14T01:43:55.892Z,4.77
2023-04-14T01:46:23.736Z,4.75
2023-04-14T01:48:50.899Z,4.75
2023-04-14T01:51:18.611Z,4.72
2023-04-14T01:53:46.115Z,4.69
2023-04-14T01:56:15.518Z,4.65
2023-04-14T01:58:44.316Z,4.61
2023-04-14T02:01:11.290Z,4.60
2023-04-14T02:03:40.682Z,4.55
2023-04-14T02:06:08.830Z,4.55
2023-04-14T02:08:39.398Z,4.57
2023-04-14T02:11:07.947Z,4.58
2023-04-14T02:13:35.584Z,4.56
2023-04-14T02:16:04.279Z,4.55
2023-04-14T02:18:31.998Z,4.55
2023-04-14T02:21:03.469Z,4.53
2023-04-14T02:23:30.649Z,4.49
2023-04-14T02:26:02.505Z,4.47
2023-04-14T02:28:34.195Z,4.42
2023-04-14T02:31:06.434Z,4.36
2023-04-14T02:33:37.148Z,4.36
2023-04-14T02:36:11.690Z,4.32
2023-04-14T02:38:42.000Z,4.32
2023-04-14T02:41:12.903Z,4.28
2023-04-14T02:43:44.086Z,4.23
2023-04-14T02:46:13.037Z,4.24
2023-04-14T02:48:41.176Z,4.22
2023-04-14T02:51:10.742Z,4.23
2023-04-14T02:53:37.584Z,4.23
2023-04-14T02:56:04.618Z,4.21
2023-04-14T02:58:32.049Z,4.21
2023-04-14T03:00:59.263Z,4.22
2023-04-14T03:03:27.427Z,4.22
2023-04-14T03:05:54.490Z,4.22
2023-04-14T03:08:23.576Z,4.21
2023-04-14T03:10:51.670Z,4.17
2023-04-14T03:13:20.005Z,4.17
2023-04-14T03:15:47.126Z,4.20
2023-04-14T03:18:15.695Z,4.18
2023-04-14T03:20:42.472Z,4.15
2023-04-14T03:23:10.154Z,4.13
2023-04-14T03:25:39.280Z,4.09
2023-04-14T03:28:09.666Z,4.06
2023-04-14T03:30:42.146Z,4.02
2023-04-14T03:33:10.795Z,4.02
2023-04-14T03:35:37.998Z,4.01
2023-04-14T03:38:05.345Z,3.97
2023-04-14T03:40:34.166Z,3.90
2023-04-14T03:43:03.431Z,3.80
2023-04-14T03:45:29.954Z,3.76
2023-04-14T03:48:01.774Z,3.76
2023-04-14T03:50:31.905Z,3.77
2023-04-14T03:52:59.160Z,3.78
2023-04-14T03:55:27.114Z,3.75
2023-04-14T03:57:56.172Z,3.71
2023-04-14T04:00:25.682Z,3.69
2023-04-14T04:02:53.651Z,3.69
2023-04-14T04:05:21.172Z,3.69
2023-04-14T04:07:49.460Z,3.69
2023-04-14T04:10:16.656Z,3.69
2023-04-14T04:12:44.119Z,3.65
2023-04-14T04:15:11.336Z,3.66
2023-04-14T04:17:40.258Z,3.63
2023-04-14T04:20:12.619Z,3.59
2023-04-14T04:22:40.949Z,3.59
2023-04-14T04:25:09.919Z,3.59
2023-04-14T04:27:36.970Z,3.59
2023-04-14T04:30:07.076Z,3.58
2023-04-14T04:32:33.654Z,3.60
2023-04-14T04:35:02.969Z,3.60
2023-04-14T04:37:30.234Z,3.60
2023-04-14T04:39:57.221Z,3.59
2023-04-14T04:42:23.748Z,3.56
2023-04-14T04:44:50.271Z,3.57
2023-04-14T04:47:16.773Z,3.58
2023-04-14T04:49:43.272Z,3.60
2023-04-14T04:52:11.127Z,3.61
2023-04-14T04:54:37.654Z,3.61
2023-04-14T04:57:04.178Z,3.59
2023-04-14T04:59:30.649Z,3.58
2023-04-14T05:01:57.253Z,3.59
2023-04-14T05:04:23.880Z,3.60
2023-04-14T05:06:50.577Z,3.58
2023-04-14T05:09:18.449Z,3.58
2023-04-14T05:11:44.977Z,3.57
2023-04-14T05:14:11.495Z,3.59
2023-04-14T05:16:37.982Z,3.65
2023-04-14T05:19:04.489Z,3.67
2023-04-14T05:21:31.099Z,3.70
2023-04-14T05:23:57.655Z,3.72
2023-04-14T05:28:54.874Z,3.78
2023-04-14T05:31:22.299Z,3.83
2023-04-14T05:33:48.815Z,3.90
2023-04-14T05:36:15.294Z,3.97
2023-04-14T05:38:41.834Z,4.05
2023-04-14T05:41:08.553Z,4.13
2023-04-14T05:43:36.421Z,4.20
2023-04-14T05:46:02.987Z,4.24
2023-04-14T05:48:29.563Z,4.32
2023-04-14T05:50:56.551Z,4.40
2023-04-14T05:53:23.111Z,4.48
2023-04-14T05:55:51.472Z,4.53
2023-04-14T05:58:17.951Z,4.58
2023-04-14T06:00:45.773Z,4.64
2023-04-14T06:03:12.449Z,4.68
2023-04-14T06:05:39.066Z,4.72
2023-04-14T06:08:05.556Z,4.76
2023-04-14T06:10:32.084Z,4.85
2023-04-14T06:12:58.614Z,4.90
2023-04-14T06:15:25.156Z,4.96
2023-04-14T06:17:53.061Z,5.02
2023-04-14T06:20:19.542Z,5.08
2023-04-14T06:22:46.039Z,5.16
2023-04-14T06:25:12.673Z,5.24
2023-04-14T06:27:39.133Z,5.32
2023-04-14T06:30:07.000Z,5.39
2023-04-14T06:32:33.557Z,5.46
2023-04-14T06:35:01.424Z,5.56
2023-04-14T06:37:27.914Z,5.63
2023-04-14T06:39:54.428Z,5.72
2023-04-14T06:42:20.922Z,5.79
2023-04-14T06:44:47.385Z,5.89
2023-04-14T06:47:18.034Z,5.98
2023-04-14T06:49:44.549Z,6.06
2023-04-14T06:52:12.408Z,6.14
2023-04-14T06:54:38.858Z,6.22
2023-04-14T06:57:05.386Z,6.31
2023-04-14T06:59:31.912Z,6.38
2023-04-14T07:01:58.542Z,6.46
2023-04-14T07:04:25.398Z,6.53
2023-04-14T07:06:51.945Z,6.65
2023-04-14T07:09:19.814Z,6.72
2023-04-14T07:11:46.386Z,6.81
2023-04-14T07:14:12.899Z,6.88
2023-04-14T07:16:39.411Z,6.97
2023-04-14T07:19:05.877Z,7.08
2023-04-14T07:21:32.415Z,7.19
2023-04-14T07:23:59.006Z,7.34
2023-04-14T07:26:26.954Z,7.47
2023-04-14T07:28:53.466Z,7.60
2023-04-14T07:31:19.977Z,7.72
2023-04-14T07:33:46.747Z,7.83
2023-04-14T07:36:13.280Z,7.90
2023-04-14T07:38:39.804Z,7.97
2023-04-14T07:41:07.150Z,8.09
2023-04-14T07:43:35.130Z,8.18
2023-04-14T07:46:02.354Z,8.24
2023-04-14T07:48:28.894Z,8.33
2023-04-14T07:50:55.381Z,8.41
2023-04-14T07:53:21.876Z,8.45
2023-04-14T07:55:48.392Z,8.52
2023-04-14T07:58:16.270Z,8.58
2023-04-14T08:00:44.141Z,8.66
2023-04-14T08:03:10.756Z,8.75
2023-04-14T08:05:37.969Z,8.91
2023-04-14T08:08:04.925Z,9.04
2023-04-14T08:10:31.636Z,9.15
2023-04-14T08:12:58.073Z,9.23
2023-04-14T08:15:24.597Z,9.30
2023-04-14T08:17:52.488Z,9.38
2023-04-14T08:20:19.094Z,9.41
2023-04-14T08:22:45.677Z,9.54
2023-04-14T08:25:12.188Z,9.58
2023-04-14T08:27:38.798Z,9.61
2023-04-14T08:30:06.982Z,9.72
2023-04-14T08:32:34.453Z,9.76
2023-04-14T08:35:39.582Z,9.84
2023-04-14T08:37:48.887Z,9.95
2023-04-14T08:40:17.744Z,10.01
2023-04-14T08:42:44.408Z,10.03
2023-04-14T08:45:12.130Z,10.06
2023-04-14T08:47:40.367Z,10.07
2023-04-14T08:50:13.536Z,10.15
2023-04-14T08:52:41.183Z,10.25
2023-04-14T08:55:10.274Z,10.34
2023-04-14T08:57:37.010Z,10.41
2023-04-14T09:00:04.527Z,10.53
2023-04-14T09:02:32.456Z,10.65
2023-04-14T09:05:00.385Z,10.71
2023-04-14T09:07:30.111Z,10.80
2023-04-14T09:09:57.703Z,10.87
2023-04-14T09:12:26.914Z,11.04
2023-04-14T09:14:54.883Z,11.10
2023-04-14T09:17:22.109Z,11.16
2023-04-14T09:20:36.047Z,11.23
2023-04-14T09:22:36.631Z,11.36
2023-04-14T09:25:03.213Z,11.48
2023-04-14T09:27:29.930Z,11.58
2023-04-14T09:29:56.649Z,11.65
2023-04-14T09:32:23.614Z,11.67
2023-04-14T09:34:50.753Z,11.70
2023-04-14T09:37:17.252Z,11.83
2023-04-14T09:39:49.383Z,11.90
2023-04-14T09:42:15.897Z,11.91
2023-04-14T09:44:52.790Z,12.03
2023-04-14T09:47:20.594Z,12.23
2023-04-14T09:49:55.654Z,12.23
2023-04-14T09:52:22.189Z,12.29
2023-04-14T09:54:54.986Z,12.41
2023-04-14T09:57:24.831Z,12.55
2023-04-14T09:59:51.311Z,12.61
2023-04-14T10:02:17.888Z,12.67
2023-04-14T10:04:44.732Z,12.72
2023-04-14T10:07:11.304Z,12.79
2023-04-14T10:09:38.732Z,12.89
2023-04-14T10:12:11.703Z,12.93
2023-04-14T10:14:38.274Z,13.02
2023-04-14T10:17:05.000Z,13.08
2023-04-14T10:19:31.540Z,13.17
2023-04-14T10:21:58.699Z,13.32
2023-04-14T10:24:25.729Z,13.45
2023-04-14T10:26:52.389Z,13.54
2023-04-14T10:29:20.664Z,13.53
2023-04-14T10:31:50.898Z,13.56
2023-04-14T10:34:18.145Z,13.62
2023-04-14T10:36:44.936Z,13.72
2023-04-14T10:39:12.466Z,13.82
2023-04-14T10:41:46.692Z,13.94
2023-04-14T10:44:27.779Z,14.04
2023-04-14T10:46:54.993Z,14.10
2023-04-14T10:49:24.733Z,14.16
2023-04-14T10:51:51.263Z,14.25
2023-04-14T10:54:18.499Z,14.28
2023-04-14T10:57:08.400Z,14.38
2023-04-14T10:59:36.366Z,14.33
2023-04-14T11:02:03.081Z,14.36
2023-04-14T11:04:29.848Z,14.43
2023-04-14T11:06:56.430Z,14.47
2023-04-14T11:09:40.538Z,14.62
2023-04-14T11:12:23.684Z,14.82
2023-04-14T11:14:55.107Z,14.85
2023-04-14T11:17:22.052Z,14.84
2023-04-14T11:19:52.733Z,14.91
2023-04-14T11:22:37.004Z,15.08
2023-04-14T11:25:04.133Z,15.14
2023-04-14T11:27:32.571Z,15.14
2023-04-14T11:30:01.198Z,15.13
2023-04-14T11:32:27.752Z,15.15
2023-04-14T11:34:54.446Z,15.20
2023-04-14T11:37:22.657Z,15.29
2023-04-14T11:39:51.229Z,15.36
2023-04-14T11:42:19.371Z,15.51
2023-04-14T11:44:45.900Z,15.69
2023-04-14T11:47:13.773Z,15.76
2023-04-14T11:49:40.278Z,15.74
2023-04-14T11:52:07.234Z,15.69
2023-04-14T11:54:37.586Z,15.72
2023-04-14T11:57:09.467Z,15.67
2023-04-14T11:59:41.774Z,15.67
2023-04-14T12:02:16.679Z,15.82
2023-04-14T12:04:43.881Z,15.87
2023-04-14T12:07:11.998Z,15.90
2023-04-14T12:09:41.540Z,15.86
2023-04-14T12:12:10.235Z,15.96
2023-04-14T12:14:37.313Z,16.03
2023-04-14T12:17:04.097Z,16.10
2023-04-14T12:19:32.054Z,16.19
2023-04-14T12:21:58.596Z,16.28
2023-04-14T12:24:33.330Z,16.17
2023-04-14T12:26:59.856Z,16.10
2023-04-14T12:29:26.421Z,16.18
2023-04-14T12:31:53.780Z,16.24
2023-04-14T12:34:25.341Z,16.33
2023-04-14T12:36:53.318Z,16.27
2023-04-14T12:39:20.564Z,16.12
2023-04-14T12:41:47.044Z,16.10
2023-04-14T12:44:15.666Z,16.23
2023-04-14T12:46:45.945Z,16.25
2023-04-14T12:49:31.214Z,16.21
2023-04-14T12:51:59.237Z,16.27
2023-04-14T12:54:25.979Z,16.32
2023-04-14T12:56:52.504Z,16.41
2023-04-14T12:59:19.000Z,16.45
2023-04-14T13:01:45.697Z,16.45
2023-04-14T13:04:12.338Z,16.34
2023-04-14T13:06:38.951Z,16.20
2023-04-14T13:09:06.781Z,15.98
2023-04-14T13:11:33.284Z,15.86
2023-04-14T13:13:59.825Z,15.71
2023-04-14T13:16:26.678Z,15.66
2023-04-14T13:18:54.096Z,15.72
2023-04-14T13:21:20.626Z,15.95
2023-04-14T13:23:47.125Z,16.17
2023-04-14T13:26:14.974Z,16.36
2023-04-14T13:28:41.479Z,16.51
2023-04-14T13:31:08.023Z,16.55
2023-04-14T13:33:34.623Z,16.41
2023-04-14T13:36:01.467Z,16.16
2023-04-14T13:38:27.992Z,16.01
2023-04-14T13:40:54.488Z,15.87
2023-04-14T13:43:22.360Z,15.87
2023-04-14T13:45:48.885Z,16.00
2023-04-14T13:48:15.425Z,16.04
2023-04-14T13:50:42.032Z,16.16
2023-04-14T13:53:08.650Z,16.26
2023-04-14T13:55:35.194Z,16.26
2023-04-14T13:58:01.735Z,16.20
2023-04-14T14:00:29.747Z,16.11
2023-04-14T14:02:56.481Z,15.96
2023-04-14T14:05:23.257Z,15.84
2023-04-14T14:07:49.772Z,15.67
2023-04-14T14:10:16.291Z,15.42
2023-04-14T14:12:42.817Z,15.28
2023-04-14T14:15:10.327Z,15.14
2023-04-14T14:17:38.243Z,15.02
2023-04-14T14:20:05.810Z,14.85
2023-04-14T14:22:32.288Z,14.76
2023-04-14T14:25:10.603Z,14.72
2023-04-14T14:27:42.215Z,14.73
2023-04-14T14:30:09.733Z,14.82
2023-04-14T14:32:37.607Z,14.95
2023-04-14T14:35:04.612Z,15.01
2023-04-14T14:37:31.273Z,15.06
2023-04-14T14:39:57.750Z,15.06
2023-04-14T14:42:24.256Z,15.16
2023-04-14T14:44:50.770Z,15.36
2023-04-14T14:47:17.378Z,15.39
2023-04-14T14:49:56.501Z,15.44
2023-04-14T14:52:23.543Z,15.39
2023-04-14T14:54:49.929Z,15.32
2023-04-14T14:57:16.392Z,15.19
2023-04-14T14:59:42.855Z,15.10
2023-04-14T15:02:09.357Z,14.96
2023-04-14T15:04:35.962Z,14.78
2023-04-14T15:07:03.821Z,14.70
2023-04-14T15:09:30.289Z,14.61
2023-04-14T15:11:56.820Z,14.62
2023-04-14T15:14:24.104Z,14.57
2023-04-14T15:16:50.647Z,14.53
2023-04-14T15:19:17.192Z,14.55
2023-04-14T15:21:43.734Z,14.49
2023-04-14T15:24:11.851Z,14.43
2023-04-14T15:26:38.462Z,14.42
2023-04-14T15:29:04.946Z,14.39
2023-04-14T15:31:31.491Z,14.40
2023-04-14T15:33:58.203Z,14.36
2023-04-14T15:36:24.800Z,14.35
2023-04-14T15:38:51.841Z,14.33
2023-04-14T15:41:19.774Z,14.32
2023-04-14T15:43:46.456Z,14.34
2023-04-14T15:46:14.382Z,14.55
2023-04-14T15:48:41.332Z,14.82
2023-04-14T15:51:07.805Z,14.93
2023-04-14T15:53:36.498Z,14.87
2023-04-14T15:56:03.047Z,14.78
2023-04-14T15:58:30.892Z,14.69
2023-04-14T16:00:57.425Z,14.58
2023-04-14T16:03:24.425Z,14.44
2023-04-14T16:05:58.905Z,14.39
2023-04-14T16:08:25.421Z,14.30
2023-04-14T16:10:51.955Z,14.33
2023-04-14T16:13:18.478Z,14.39
2023-04-14T16:15:46.315Z,14.44
2023-04-14T16:18:12.827Z,14.40
2023-04-14T16:20:39.299Z,14.33
2023-04-14T16:23:05.762Z,14.28
2023-04-14T16:25:32.244Z,14.20
2023-04-14T16:27:58.743Z,14.13
2023-04-14T16:30:25.238Z,14.07
2023-04-14T16:32:53.123Z,13.98
2023-04-14T16:35:19.587Z,13.87
2023-04-14T16:37:46.108Z,13.85
2023-04-14T16:40:12.811Z,13.79
2023-04-14T16:42:39.297Z,13.69
2023-04-14T16:45:06.881Z,13.63
2023-04-14T16:47:33.367Z,13.60
2023-04-14T16:50:01.358Z,13.58
2023-04-14T16:52:29.802Z,13.49
2023-04-14T16:54:56.317Z,13.49
2023-04-14T16:57:22.858Z,13.47
2023-04-14T16:59:49.334Z,13.42
2023-04-14T17:02:15.941Z,13.39
2023-04-14T17:04:42.719Z,13.33
2023-04-14T17:07:10.656Z,13.30
2023-04-14T17:09:37.119Z,13.28
2023-04-14T17:12:03.764Z,13.25
2023-04-14T17:14:30.234Z,13.24
2023-04-14T17:16:56.797Z,13.24
2023-04-14T17:19:23.359Z,13.21
2023-04-14T17:21:49.911Z,13.18
2023-04-14T17:24:17.768Z,13.15
2023-04-14T17:26:44.242Z,13.15
2023-04-14T17:29:10.727Z,13.13
2023-04-14T17:31:37.383Z,13.15
2023-04-14T17:34:04.269Z,13.13
2023-04-14T17:36:30.962Z,13.12
2023-04-14T17:38:57.441Z,13.11
2023-04-14T17:41:25.269Z,13.10
2023-04-14T17:43:51.712Z,13.08
2023-04-14T17:46:18.225Z,13.05
2023-04-14T17:48:44.824Z,13.01
2023-04-14T17:51:11.667Z,12.97
2023-04-14T17:53:38.310Z,12.93
2023-04-14T17:56:05.582Z,12.87
2023-04-14T17:58:33.475Z,12.80
2023-04-14T18:01:00.043Z,12.74
2023-04-14T18:03:26.714Z,12.71
2023-04-14T18:05:53.980Z,12.67
2023-04-14T18:08:20.455Z,12.65
2023-04-14T18:10:46.910Z,12.60
2023-04-14T18:13:13.456Z,12.58
2023-04-14T18:15:41.631Z,12.54
2023-04-14T18:18:08.283Z,12.53
2023-04-14T18:20:34.862Z,12.48
2023-04-14T18:23:01.390Z,12.44
2023-04-14T18:25:27.944Z,12.39
2023-04-14T18:30:23.863Z,12.23
2023-04-14T18:32:51.804Z,12.14
2023-04-14T18:35:18.390Z,12.07
2023-04-14T18:37:44.890Z,11.99
2023-04-14T18:40:12.150Z,11.94
2023-04-14T18:42:38.656Z,11.89
2023-04-14T18:45:06.141Z,11.85
2023-04-14T18:47:32.732Z,11.77
2023-04-14T18:50:00.728Z,11.68
2023-04-14T18:52:28.217Z,11.62
2023-04-14T18:54:54.748Z,11.56
2023-04-14T18:57:21.279Z,11.54
2023-04-14T18:59:47.784Z,11.47
2023-04-14T19:02:14.333Z,11.40
2023-04-14T19:04:40.987Z,11.32
2023-04-14T19:07:08.890Z,11.27
2023-04-14T19:09:35.386Z,11.23
2023-04-14T19:12:01.878Z,11.17
2023-04-14T19:14:28.312Z,11.10
2023-04-14T19:16:54.810Z,11.03
2023-04-14T19:19:21.282Z,10.99
2023-04-14T19:21:47.773Z,10.94
2023-04-14T19:24:15.622Z,10.91
2023-04-14T19:26:43.441Z,10.88
2023-04-14T19:29:09.949Z,10.82
2023-04-14T19:31:36.513Z,10.75
2023-04-14T19:34:03.031Z,10.67
2023-04-14T19:36:29.588Z,10.57
2023-04-14T19:38:56.068Z,10.51
2023-04-14T19:41:23.883Z,10.47
2023-04-14T19:43:50.337Z,10.44
2023-04-14T19:46:16.889Z,10.43
2023-04-14T19:48:43.428Z,10.38
2023-04-14T19:51:09.949Z,10.37
2023-04-14T19:53:36.468Z,10.33
2023-04-14T19:56:03.055Z,10.33
2023-04-14T19:58:31.363Z,10.29
2023-04-14T20:00:58.265Z,10.25
2023-04-14T20:03:25.456Z,10.23
2023-04-14T20:05:53.326Z,10.19
2023-04-14T20:08:20.059Z,10.17
2023-04-14T20:10:46.551Z,10.16
2023-04-14T20:13:14.978Z,10.18
2023-04-14T20:15:43.886Z,10.17
2023-04-14T20:18:10.337Z,10.16
2023-04-14T20:20:39.132Z,10.14
2023-04-14T20:23:05.649Z,10.13
2023-04-14T20:25:32.131Z,10.11
2023-04-14T20:27:58.627Z,10.11
2023-04-14T20:30:25.457Z,10.10
2023-04-14T20:32:53.389Z,10.13
2023-04-14T20:35:19.943Z,10.14
2023-04-14T20:37:46.423Z,10.15
2023-04-14T20:40:12.996Z,10.13
2023-04-14T20:42:39.476Z,10.06
2023-04-14T20:45:06.985Z,10.02
2023-04-14T20:47:33.585Z,10.02
2023-04-14T20:50:01.657Z,10.00
2023-04-14T20:52:28.137Z,9.98
2023-04-14T20:54:54.756Z,9.95
2023-04-14T20:57:21.294Z,9.96
2023-04-14T20:59:47.795Z,9.92
2023-04-14T21:02:14.269Z,9.90
2023-04-14T21:04:40.731Z,9.91
2023-04-14T21:07:08.929Z,9.88
2023-04-14T21:09:35.516Z,9.85
2023-04-14T21:12:14.283Z,9.82
2023-04-14T21:15:29.229Z,9.79
2023-04-14T21:17:29.189Z,9.75
2023-04-14T21:19:55.717Z,9.74
2023-04-14T21:22:23.743Z,9.74
2023-04-14T21:24:50.208Z,9.72
2023-04-14T21:27:17.078Z,9.72
2023-04-14T21:29:44.483Z,9.68
2023-04-14T21:32:11.359Z,9.66
2023-04-14T21:34:37.895Z,9.67
2023-04-14T21:37:04.729Z,9.62
2023-04-14T21:39:32.760Z,9.60
2023-04-14T21:41:59.872Z,9.58
2023-04-14T21:44:26.552Z,9.55
2023-04-14T21:46:53.350Z,9.53
2023-04-14T21:49:19.892Z,9.49
2023-04-14T21:51:46.594Z,9.46
2023-04-14T21:54:13.587Z,9.42
2023-04-14T21:56:41.419Z,9.44
2023-04-14T21:59:07.961Z,9.41
2023-04-14T22:01:34.526Z,9.34
2023-04-14T22:04:01.137Z,9.31
2023-04-14T22:06:27.764Z,9.29
2023-04-14T22:08:54.496Z,9.24
2023-04-14T22:11:21.495Z,9.21
2023-04-14T22:13:49.332Z,9.26
2023-04-14T22:16:15.995Z,9.29
2023-04-14T22:18:42.845Z,9.24
2023-04-14T22:21:10.247Z,9.24
2023-04-14T22:23:36.737Z,9.24
2023-04-14T22:26:03.250Z,9.21
2023-04-14T22:28:29.791Z,9.21
2023-04-14T22:30:57.809Z,9.18
2023-04-14T22:33:24.414Z,9.15
2023-04-14T22:35:50.966Z,9.15
2023-04-14T22:38:17.511Z,9.13
2023-04-14T22:40:44.053Z,9.07
2023-04-14T22:43:10.520Z,9.06
2023-04-14T22:45:37.281Z,9.04
2023-04-14T22:48:05.901Z,9.02
2023-04-14T22:50:32.497Z,9.01
2023-04-14T22:52:59.001Z,9.04
2023-04-14T22:55:25.651Z,9.04
2023-04-14T22:57:52.140Z,9.03
2023-04-14T23:00:19.168Z,9.04
2023-04-14T23:02:46.310Z,9.08
2023-04-14T23:05:14.785Z,9.08
2023-04-14T23:07:41.385Z,9.08
2023-04-14T23:10:08.878Z,9.09
2023-04-14T23:12:35.981Z,9.09
2023-04-14T23:15:02.754Z,9.08
2023-04-14T23:17:29.838Z,9.08
2023-04-14T23:19:56.563Z,9.07
2023-04-14T23:22:24.399Z,9.05
2023-04-14T23:24:50.981Z,9.02
2023-04-14T23:27:17.451Z,8.99
2023-04-14T23:29:43.982Z,8.97
2023-04-14T23:32:10.516Z,8.95
2023-04-14T23:34:37.632Z,8.93
2023-04-14T23:37:04.559Z,8.86
2023-04-14T23:39:32.450Z,8.82
2023-04-14T23:41:58.971Z,8.80
2023-04-14T23:44:25.475Z,8.77
2023-04-14T23:46:51.975Z,8.73
2023-04-14T23:49:24.085Z,8.73
2023-04-14T23:51:51.274Z,8.72
2023-04-14T23:54:17.786Z,8.68
2023-04-14T23:56:45.582Z,8.65
2023-04-14T23:59:12.064Z,8.59
